Welcome to Northern Hawkes Bay. New Zealand.
PWS Header
      nz Flag



Hit Counter


W3C Valid W3C Valid logo


    Wairoa

Select any of the Stations below to visit their websites.










Historic Data from Weather Underground
Select the location of interest below. Wairoa is the default. Please have patience, this Data is slow to load in.
Northern Hawkes Bay Historical Data
Daily Summary for June 23, 2017 Units:  Metric    English   Both
« Previous Day
Next Day »
Daily Weekly Monthly Yearly Custom
  High: Low: Average:
Temperature: 14.3 °C 11.3 °C 12.2 °C
Dew Point: 14.2 °C 11.0 °C 11.8 °C
Humidity: 99% 97% 98%
Wind Speed: 14.8km/h 0.0km/h 1.8km/h
Wind Gust: 20.9km/h - -
Wind- - SW
Pressure: 1007.7 hPa 996.5 hPa -
Precipitation: 9.9 mm    
Historical Graphs
 
 
Tabular Data for June 23, 2017
Time Temperature Dew Point Pressure Wind Wind Speed Wind Gust Humidity Rainfall Rate (Hourly) solar
00:01 14.3 °C 14.2 °C 1007.3 hPa East 13.4 km/h 20.9 km/h 99% 0.0 mm 0 W/m2
00:06 13.9 °C 13.8 °C 1007.3 hPa ENE 11.1 km/h 19.5 km/h 99% 0.0 mm 0 W/m2
00:11 12.8 °C 12.3 °C 1007.7 hPa NE 8.7 km/h 19.5 km/h 97% 0.0 mm 0 W/m2
00:16 12.3 °C 11.8 °C 1007.3 hPa NNE 13.4 km/h 17.2 km/h 97% 0.3 mm 0 W/m2
00:21 12.1 °C 11.7 °C 1007.3 hPa NNE 14.8 km/h 19.5 km/h 97% 0.3 mm 0 W/m2
00:26 12.1 °C 11.7 °C 1007.3 hPa NNE 6.1 km/h 20.9 km/h 97% 0.3 mm 0 W/m2
00:31 12.1 °C 11.7 °C 1007.3 hPa NNE 5.0 km/h 20.9 km/h 97% 0.3 mm 0 W/m2
00:36 12.1 °C 11.7 °C 1007.3 hPa North 7.2 km/h 19.5 km/h 97% 0.3 mm 0 W/m2
00:41 12.1 °C 11.7 °C 1007.3 hPa NNW 5.0 km/h 19.5 km/h 97% 0.3 mm 0 W/m2
00:46 12.1 °C 11.7 °C 1007.3 hPa North 9.7 km/h 17.2 km/h 97% 0.3 mm 0 W/m2
00:51 12.2 °C 11.7 °C 1007.3 hPa NNE 8.7 km/h 17.2 km/h 97% 0.3 mm 0 W/m2
00:56 12.1 °C 11.7 °C 1007.3 hPa NNE 6.1 km/h 17.2 km/h 97% 0.3 mm 0 W/m2
01:01 12.1 °C 11.7 °C 1007.3 hPa NNE 9.7 km/h 14.8 km/h 97% 0.3 mm 0 W/m2
01:06 12.1 °C 11.7 °C 1007.3 hPa North 7.2 km/h 14.8 km/h 97% 0.3 mm 0 W/m2
01:11 12.1 °C 11.7 °C 1007.3 hPa North 7.2 km/h 14.8 km/h 97% 0.0 mm 0 W/m2
01:16 12.0 °C 11.6 °C 1007.3 hPa North 6.1 km/h 13.4 km/h 97% 0.0 mm 0 W/m2
01:21 12.0 °C 11.6 °C 1007.3 hPa North 9.7 km/h 13.4 km/h 97% 0.0 mm 0 W/m2
01:26 12.0 °C 11.6 °C 1007.3 hPa North 9.7 km/h 15.8 km/h 97% 0.0 mm 0 W/m2
01:31 12.0 °C 11.6 °C 1007.3 hPa North 8.7 km/h 15.8 km/h 97% 0.0 mm 0 W/m2
01:36 11.9 °C 11.6 °C 1007.3 hPa North 8.7 km/h 14.8 km/h 98% 0.0 mm 0 W/m2
01:41 11.9 °C 11.6 °C 1007.0 hPa North 9.7 km/h 14.8 km/h 98% 0.0 mm 0 W/m2
01:46 11.9 °C 11.6 °C 1007.0 hPa North 6.1 km/h 13.4 km/h 98% 0.0 mm 0 W/m2
01:51 11.9 °C 11.6 °C 1007.3 hPa North 5.0 km/h 11.1 km/h 98% 0.0 mm 0 W/m2
01:56 11.8 °C 11.5 °C 1007.0 hPa NNE 1.1 km/h 11.1 km/h 98% 0.0 mm 0 W/m2
02:01 11.7 °C 11.4 °C 1007.0 hPa NE 1.1 km/h 8.7 km/h 98% 0.0 mm 0 W/m2
02:06 11.7 °C 11.4 °C 1007.0 hPa NNE 2.6 km/h 6.1 km/h 98% 0.0 mm 0 W/m2
02:11 11.6 °C 11.3 °C 1007.3 hPa Calm   6.1 km/h 98% 0.0 mm 0 W/m2
02:16 11.6 °C 11.3 °C 1007.0 hPa NNE 3.5 km/h 6.1 km/h 98% 0.0 mm 0 W/m2
02:21 11.7 °C 11.4 °C 1007.0 hPa NNE 2.6 km/h 6.1 km/h 98% 0.0 mm 0 W/m2
02:26 11.7 °C 11.4 °C 1006.7 hPa NNE 3.5 km/h 6.1 km/h 98% 0.0 mm 0 W/m2
02:31 11.8 °C 11.5 °C 1006.7 hPa North 3.5 km/h 7.2 km/h 98% 0.0 mm 0 W/m2
02:36 11.7 °C 11.4 °C 1006.7 hPa North 3.5 km/h 7.2 km/h 98% 0.0 mm 0 W/m2
02:41 11.6 °C 11.3 °C 1006.7 hPa North 2.6 km/h 6.1 km/h 98% 0.0 mm 0 W/m2
02:46 11.5 °C 11.2 °C 1006.7 hPa North 1.1 km/h 7.2 km/h 98% 0.0 mm 0 W/m2
02:51 11.4 °C 11.1 °C 1006.7 hPa North 2.6 km/h 7.2 km/h 98% 0.0 mm 0 W/m2
02:56 11.4 °C 11.1 °C 1006.3 hPa North 1.1 km/h 6.1 km/h 98% 0.0 mm 0 W/m2
03:01 11.4 °C 11.1 °C 1006.3 hPa NNE 2.6 km/h 6.1 km/h 98% 0.0 mm 0 W/m2
03:06 11.5 °C 11.2 °C 1006.3 hPa North 3.5 km/h 7.2 km/h 98% 0.0 mm 0 W/m2
03:11 11.5 °C 11.2 °C 1006.3 hPa North 5.0 km/h 7.2 km/h 98% 0.0 mm 0 W/m2
03:16 11.6 °C 11.3 °C 1006.7 hPa NNW 2.6 km/h 7.2 km/h 98% 0.0 mm 0 W/m2
03:21 11.5 °C 11.2 °C 1006.7 hPa Calm   7.2 km/h 98% 0.0 mm 0 W/m2
03:26 11.4 °C 11.1 °C 1006.3 hPa SE 1.1 km/h 5.0 km/h 98% 0.0 mm 0 W/m2
03:31 11.3 °C 11.0 °C 1006.3 hPa Calm   3.5 km/h 98% 0.0 mm 0 W/m2
03:36 11.4 °C 11.1 °C 1006.3 hPa Calm   2.6 km/h 98% 0.0 mm 0 W/m2
03:41 11.4 °C 11.1 °C 1006.3 hPa NNW 1.1 km/h 2.6 km/h 98% 0.0 mm 0 W/m2
03:46 11.4 °C 11.1 °C 1006.0 hPa NW 2.6 km/h 3.5 km/h 98% 0.0 mm 0 W/m2
03:51 11.4 °C 11.1 °C 1006.0 hPa NW 1.1 km/h 3.5 km/h 98% 0.0 mm 0 W/m2
03:56 11.4 °C 11.1 °C 1006.0 hPa NW 2.6 km/h 5.0 km/h 98% 0.0 mm 0 W/m2
04:01 11.4 °C 11.1 °C 1006.0 hPa NW 2.6 km/h 5.0 km/h 98% 0.0 mm 0 W/m2
04:06 11.4 °C 11.1 °C 1006.0 hPa Calm   5.0 km/h 98% 0.0 mm 0 W/m2
04:11 11.4 °C 11.1 °C 1006.0 hPa NW 1.1 km/h 3.5 km/h 98% 0.0 mm 0 W/m2
04:16 11.5 °C 11.2 °C 1005.6 hPa NNW 2.6 km/h 5.0 km/h 98% 0.0 mm 0 W/m2
04:21 11.6 °C 11.3 °C 1005.6 hPa NW 3.5 km/h 5.0 km/h 98% 0.0 mm 0 W/m2
04:24 11.6 °C 11.3 °C 1005.6 hPa NW 3.5 km/h 6.1 km/h 98% 0.0 mm 0 W/m2
04:29 11.6 °C 11.3 °C 1005.6 hPa NW 2.6 km/h 6.1 km/h 98% 0.0 mm 0 W/m2
04:34 11.6 °C 11.3 °C 1005.6 hPa NW 3.5 km/h 6.1 km/h 98% 0.0 mm 0 W/m2
04:39 11.6 °C 11.3 °C 1005.6 hPa NW 3.5 km/h 6.1 km/h 98% 0.0 mm 0 W/m2
04:44 11.6 °C 11.3 °C 1005.6 hPa NW 3.5 km/h 6.1 km/h 98% 0.0 mm 0 W/m2
04:49 11.6 °C 11.3 °C 1005.6 hPa NW 2.6 km/h 6.1 km/h 98% 0.0 mm 0 W/m2
04:54 11.6 °C 11.3 °C 1005.6 hPa NW 3.5 km/h 5.0 km/h 98% 0.0 mm 0 W/m2
04:59 11.5 °C 11.2 °C 1005.3 hPa NNW 1.1 km/h 5.0 km/h 98% 0.0 mm 0 W/m2
05:05 11.5 °C 11.2 °C 1005.3 hPa NNW 2.6 km/h 5.0 km/h 98% 0.0 mm 0 W/m2
05:10 11.5 °C 11.2 °C 1005.3 hPa NNW 1.1 km/h 3.5 km/h 98% 0.0 mm 0 W/m2
05:15 11.5 °C 11.2 °C 1005.3 hPa NW 2.6 km/h 3.5 km/h 98% 0.0 mm 0 W/m2
05:20 11.5 °C 11.2 °C 1005.0 hPa NW 3.5 km/h 5.0 km/h 98% 0.0 mm 0 W/m2
05:25 11.5 °C 11.2 °C 1005.3 hPa NW 2.6 km/h 5.0 km/h 98% 0.0 mm 0 W/m2
05:30 11.5 °C 11.2 °C 1005.3 hPa NW 3.5 km/h 6.1 km/h 98% 0.0 mm 0 W/m2
05:35 11.5 °C 11.2 °C 1005.3 hPa NW 2.6 km/h 6.1 km/h 98% 0.0 mm 0 W/m2
05:40 11.5 °C 11.2 °C 1005.3 hPa NW 3.5 km/h 6.1 km/h 98% 0.0 mm 0 W/m2
05:45 11.5 °C 11.2 °C 1005.0 hPa NW 2.6 km/h 5.0 km/h 98% 0.0 mm 0 W/m2
05:50 11.5 °C 11.2 °C 1005.0 hPa NW 1.1 km/h 5.0 km/h 98% 0.0 mm 0 W/m2
05:55 11.5 °C 11.2 °C 1005.0 hPa NW 2.6 km/h 5.0 km/h 98% 0.0 mm 0 W/m2
06:12 11.4 °C 11.1 °C 1005.0 hPa Calm   5.0 km/h 98% 0.0 mm 0 W/m2
06:17 11.4 °C 11.1 °C 1005.0 hPa Calm   5.0 km/h 98% 0.0 mm 0 W/m2
06:22 11.4 °C 11.1 °C 1005.3 hPa NNE 1.1 km/h 2.6 km/h 98% 0.0 mm 0 W/m2
06:27 11.4 °C 11.1 °C 1005.0 hPa North 1.1 km/h 3.5 km/h 98% 0.0 mm 0 W/m2
06:32 11.4 °C 11.1 °C 1005.3 hPa NW 3.5 km/h 5.0 km/h 98% 0.0 mm 0 W/m2
06:37 11.4 °C 11.1 °C 1005.3 hPa NW 5.0 km/h 8.7 km/h 98% 0.0 mm 0 W/m2
06:42 11.4 °C 11.1 °C 1005.0 hPa NW 1.1 km/h 8.7 km/h 98% 0.0 mm 0 W/m2
06:47 11.5 °C 11.2 °C 1005.0 hPa NW 1.1 km/h 5.0 km/h 98% 0.0 mm 0 W/m2
06:52 11.5 °C 11.2 °C 1005.0 hPa NW 2.6 km/h 5.0 km/h 98% 0.0 mm 0 W/m2
06:57 11.4 °C 11.1 °C 1005.0 hPa NNW 1.1 km/h 5.0 km/h 98% 0.0 mm 0 W/m2
07:02 11.4 °C 11.1 °C 1005.0 hPa NW 1.1 km/h 5.0 km/h 98% 0.0 mm 0 W/m2
07:07 11.4 °C 11.1 °C 1005.0 hPa Calm   5.0 km/h 98% 0.0 mm 0 W/m2
07:12 11.4 °C 11.1 °C 1005.0 hPa Calm   2.6 km/h 98% 0.0 mm 0 W/m2
07:17 11.4 °C 11.1 °C 1005.0 hPa West 1.1 km/h 2.6 km/h 98% 0.0 mm 0 W/m2
07:22 11.4 °C 11.1 °C 1005.3 hPa WNW 1.1 km/h 2.6 km/h 98% 0.0 mm 0 W/m2
07:27 11.4 °C 11.1 °C 1005.3 hPa NNE 2.6 km/h 6.1 km/h 98% 0.0 mm 0 W/m2
07:32 11.4 °C 11.1 °C 1005.3 hPa Calm   6.1 km/h 98% 0.0 mm 0 W/m2
07:37 11.4 °C 11.1 °C 1005.3 hPa NNE 1.1 km/h 5.0 km/h 98% 0.0 mm 0 W/m2
07:42 11.4 °C 11.1 °C 1005.3 hPa Calm   3.5 km/h 98% 0.0 mm 1 W/m2
07:47 11.4 °C 11.1 °C 1005.3 hPa Calm   2.6 km/h 98% 0.0 mm 4 W/m2
07:52 11.4 °C 11.1 °C 1005.0 hPa Calm   1.1 km/h 98% 0.0 mm 7 W/m2
07:57 11.4 °C 11.1 °C 1005.0 hPa Calm   1.1 km/h 98% 0.0 mm 9 W/m2
08:02 11.4 °C 11.1 °C 1005.0 hPa North 1.1 km/h 3.5 km/h 98% 0.0 mm 8 W/m2
08:07 11.4 °C 11.1 °C 1005.0 hPa Calm   3.5 km/h 98% 0.0 mm 12 W/m2
08:12 11.5 °C 11.2 °C 1005.0 hPa Calm   3.5 km/h 98% 0.0 mm 18 W/m2
08:17 11.5 °C 11.2 °C 1005.0 hPa Calm   1.1 km/h 98% 0.0 mm 26 W/m2
08:22 11.6 °C 11.3 °C 1005.0 hPa NW 1.1 km/h 3.5 km/h 98% 0.0 mm 23 W/m2
08:27 11.7 °C 11.4 °C 1005.0 hPa NW 1.1 km/h 3.5 km/h 98% 0.0 mm 24 W/m2
08:32 11.7 °C 11.4 °C 1005.0 hPa NNW 2.6 km/h 3.5 km/h 98% 0.0 mm 23 W/m2
08:37 11.8 °C 11.5 °C 1005.0 hPa NNW 1.1 km/h 3.5 km/h 98% 0.0 mm 28 W/m2
08:42 11.8 °C 11.5 °C 1005.0 hPa NNW 1.1 km/h 3.5 km/h 98% 0.0 mm 32 W/m2
08:47 12.0 °C 11.6 °C 1005.0 hPa NNW 1.1 km/h 3.5 km/h 97% 0.0 mm 29 W/m2
08:52 12.0 °C 11.6 °C 1005.0 hPa North 1.1 km/h 3.5 km/h 97% 0.0 mm 24 W/m2
08:57 12.0 °C 11.6 °C 1004.6 hPa Calm   3.5 km/h 97% 0.0 mm 28 W/m2
09:02 12.0 °C 11.6 °C 1005.0 hPa NNW 2.6 km/h 3.5 km/h 97% 0.0 mm 33 W/m2
09:07 12.1 °C 11.7 °C 1004.6 hPa NNW 1.1 km/h 5.0 km/h 97% 0.3 mm 42 W/m2
09:12 12.1 °C 11.7 °C 1004.6 hPa NNW 1.1 km/h 5.0 km/h 97% 0.3 mm 49 W/m2
09:17 12.2 °C 11.7 °C 1004.6 hPa North 2.6 km/h 3.5 km/h 97% 0.3 mm 50 W/m2
09:22 12.2 °C 11.7 °C 1004.6 hPa NNW 2.6 km/h 3.5 km/h 97% 0.3 mm 46 W/m2
09:27 12.2 °C 11.7 °C 1004.6 hPa NW 1.1 km/h 3.5 km/h 97% 0.3 mm 47 W/m2
09:33 12.3 °C 11.8 °C 1004.6 hPa NNW 1.1 km/h 3.5 km/h 97% 0.3 mm 46 W/m2
09:38 12.4 °C 11.9 °C 1004.6 hPa NNW 1.1 km/h 3.5 km/h 97% 0.3 mm 39 W/m2
09:43 12.3 °C 11.8 °C 1004.6 hPa NNW 1.1 km/h 3.5 km/h 97% 0.3 mm 53 W/m2
09:48 12.4 °C 11.9 °C 1004.6 hPa NW 2.6 km/h 3.5 km/h 97% 0.3 mm 56 W/m2
09:53 12.4 °C 11.9 °C 1004.6 hPa NW 1.1 km/h 3.5 km/h 97% 0.3 mm 50 W/m2
09:58 12.5 °C 12.1 °C 1004.6 hPa NNW 1.1 km/h 3.5 km/h 97% 0.3 mm 53 W/m2
10:03 12.5 °C 12.1 °C 1004.6 hPa NNW 1.1 km/h 5.0 km/h 97% 0.3 mm 47 W/m2
10:08 12.5 °C 12.1 °C 1004.6 hPa NNW 3.5 km/h 5.0 km/h 97% 0.0 mm 42 W/m2
10:13 12.5 °C 12.1 °C 1004.6 hPa NNW 2.6 km/h 5.0 km/h 97% 0.0 mm 38 W/m2
10:18 12.5 °C 12.1 °C 1004.3 hPa Calm   5.0 km/h 97% 0.0 mm 35 W/m2
10:23 12.5 °C 12.1 °C 1004.3 hPa Calm   2.6 km/h 97% 0.0 mm 30 W/m2
10:28 12.6 °C 12.2 °C 1003.9 hPa Calm   2.6 km/h 97% 0.3 mm 37 W/m2
10:33 12.6 °C 12.2 °C 1004.3 hPa West 1.1 km/h 2.6 km/h 97% 0.3 mm 37 W/m2
10:38 12.6 °C 12.2 °C 1004.3 hPa NNW 1.1 km/h 3.5 km/h 97% 0.3 mm 35 W/m2
10:43 12.6 °C 12.2 °C 1004.3 hPa North 2.6 km/h 3.5 km/h 97% 0.3 mm 33 W/m2
10:48 12.5 °C 12.1 °C 1003.9 hPa NNW 1.1 km/h 3.5 km/h 97% 0.3 mm 35 W/m2
10:53 12.5 °C 12.1 °C 1003.9 hPa NW 1.1 km/h 5.0 km/h 97% 0.3 mm 32 W/m2
10:58 12.5 °C 12.1 °C 1003.9 hPa Calm   5.0 km/h 97% 0.5 mm 29 W/m2
11:03 12.6 °C 12.2 °C 1003.9 hPa Calm   3.5 km/h 97% 0.5 mm 26 W/m2
11:08 12.6 °C 12.2 °C 1003.6 hPa North 1.1 km/h 2.6 km/h 97% 1.0 mm 24 W/m2
11:13 12.6 °C 12.2 °C 1003.6 hPa Calm   2.6 km/h 97% 1.0 mm 21 W/m2
11:18 12.6 °C 12.2 °C 1003.3 hPa Calm   2.6 km/h 97% 1.3 mm 19 W/m2
11:23 12.5 °C 12.1 °C 1002.9 hPa Calm   1.1 km/h 97% 1.5 mm 22 W/m2
11:28 12.6 °C 12.2 °C 1002.9 hPa Calm   2.6 km/h 97% 1.3 mm 24 W/m2
11:33 12.5 °C 12.1 °C 1002.9 hPa Calm   2.6 km/h 97% 1.3 mm 22 W/m2
11:38 12.5 °C 12.1 °C 1002.9 hPa NW 2.6 km/h 5.0 km/h 97% 1.5 mm 21 W/m2
11:43 12.5 °C 12.1 °C 1002.9 hPa Calm   5.0 km/h 97% 1.5 mm 30 W/m2
11:48 12.6 °C 12.2 °C 1002.6 hPa Calm   3.5 km/h 97% 1.8 mm 36 W/m2
11:53 12.7 °C 12.2 °C 1002.6 hPa Calm   1.1 km/h 97% 1.8 mm 37 W/m2
11:58 12.8 °C 12.3 °C 1002.3 hPa SW 1.1 km/h 3.5 km/h 97% 1.5 mm 38 W/m2
12:03 12.8 °C 12.3 °C 1002.3 hPa SSW 1.1 km/h 3.5 km/h 97% 1.5 mm 33 W/m2
12:08 12.8 °C 12.3 °C 1002.3 hPa Calm   3.5 km/h 97% 1.5 mm 26 W/m2
12:13 12.7 °C 12.2 °C 1002.3 hPa NW 1.1 km/h 3.5 km/h 97% 1.5 mm 22 W/m2
12:18 12.7 °C 12.2 °C 1002.3 hPa NNW 2.6 km/h 3.5 km/h 97% 1.5 mm 19 W/m2
12:23 12.7 °C 12.2 °C 1002.3 hPa NNW 2.6 km/h 5.0 km/h 97% 1.3 mm 22 W/m2
12:28 12.7 °C 12.2 °C 1001.9 hPa NNW 6.1 km/h 8.7 km/h 97% 1.5 mm 21 W/m2
12:33 12.6 °C 12.2 °C 1002.3 hPa NNW 6.1 km/h 8.7 km/h 97% 1.5 mm 21 W/m2
12:38 12.6 °C 12.2 °C 1001.9 hPa NNW 9.7 km/h 12.2 km/h 97% 1.5 mm 22 W/m2
12:43 12.5 °C 12.1 °C 1001.9 hPa NNW 2.6 km/h 12.2 km/h 97% 1.8 mm 30 W/m2
12:48 12.5 °C 12.1 °C 1001.2 hPa NNW 11.1 km/h 12.2 km/h 97% 2.0 mm 25 W/m2
12:53 12.5 °C 12.1 °C 1001.2 hPa SSE 3.5 km/h 13.4 km/h 97% 2.8 mm 31 W/m2
12:58 12.5 °C 12.1 °C 1001.2 hPa SSE 3.5 km/h 13.4 km/h 97% 3.0 mm 22 W/m2
13:03 12.5 °C 12.1 °C 1001.2 hPa Calm   8.7 km/h 97% 3.0 mm 22 W/m2
13:08 12.5 °C 12.1 °C 1001.2 hPa Calm   6.1 km/h 97% 3.3 mm 21 W/m2
13:13 12.5 °C 12.1 °C 1000.9 hPa Calm   2.6 km/h 97% 3.6 mm 23 W/m2
13:18 12.5 °C 12.1 °C 1000.6 hPa Calm   2.6 km/h 97% 3.8 mm 20 W/m2
13:23 12.5 °C 12.1 °C 1000.9 hPa NE 1.1 km/h 2.6 km/h 97% 4.3 mm 16 W/m2
13:28 12.5 °C 12.1 °C 1000.6 hPa Calm   2.6 km/h 97% 4.6 mm 14 W/m2
13:33 12.5 °C 12.1 °C 1000.6 hPa Calm   2.6 km/h 97% 4.8 mm 22 W/m2
13:38 12.5 °C 12.1 °C 1000.6 hPa Calm   1.1 km/h 97% 4.8 mm 28 W/m2
13:43 12.5 °C 12.1 °C 1000.6 hPa NNE 2.6 km/h 2.6 km/h 97% 4.8 mm 27 W/m2
13:48 12.6 °C 12.2 °C 1000.6 hPa Calm   2.6 km/h 97% 4.3 mm 37 W/m2
13:53 12.7 °C 12.2 °C 1000.2 hPa Calm   2.6 km/h 97% 3.8 mm 45 W/m2
13:58 12.8 °C 12.3 °C 1000.2 hPa Calm   2.6 km/h 97% 3.6 mm 47 W/m2
14:03 12.8 °C 12.3 °C 1000.2 hPa Calm   1.1 km/h 97% 3.6 mm 62 W/m2
14:08 12.8 °C 12.3 °C 1000.2 hPa Calm   1.1 km/h 97% 3.0 mm 69 W/m2
14:13 12.8 °C 12.3 °C 1000.2 hPa Calm   1.1 km/h 97% 2.8 mm 76 W/m2
14:18 13.0 °C 12.8 °C 1000.2 hPa Calm     99% 2.3 mm 66 W/m2
14:23 13.0 °C 12.8 °C 1000.2 hPa Calm   2.6 km/h 99% 2.0 mm 74 W/m2
14:28 13.0 °C 12.8 °C 1000.2 hPa Calm   2.6 km/h 99% 1.5 mm 64 W/m2
14:33 13.0 °C 12.8 °C 1000.2 hPa Calm   2.6 km/h 99% 1.0 mm 36 W/m2
14:38 13.0 °C 12.8 °C 1000.2 hPa Calm   2.6 km/h 99% 0.5 mm 30 W/m2
14:43 13.0 °C 12.8 °C 999.9 hPa Calm   2.6 km/h 99% 0.3 mm 33 W/m2
14:48 13.0 °C 12.8 °C 999.9 hPa Calm   2.6 km/h 99% 0.3 mm 42 W/m2
14:53 13.0 °C 12.8 °C 999.9 hPa Calm   2.6 km/h 99% 0.3 mm 48 W/m2
14:58 13.1 °C 12.9 °C 999.5 hPa Calm   2.6 km/h 99% 0.0 mm 39 W/m2
15:03 13.1 °C 12.9 °C 999.5 hPa Calm   1.1 km/h 99% 0.0 mm 40 W/m2
15:08 13.1 °C 12.9 °C 999.5 hPa Calm   1.1 km/h 99% 0.0 mm 49 W/m2
15:13 13.1 °C 12.9 °C 999.5 hPa ESE 1.1 km/h 2.6 km/h 99% 0.0 mm 51 W/m2
15:18 13.0 °C 12.8 °C 999.5 hPa East 1.1 km/h 3.5 km/h 99% 0.0 mm 58 W/m2
15:23 13.0 °C 12.8 °C 999.5 hPa East 1.1 km/h 3.5 km/h 99% 0.0 mm 60 W/m2
15:28 13.0 °C 12.8 °C 999.5 hPa ENE 1.1 km/h 3.5 km/h 99% 0.0 mm 59 W/m2
15:33 13.2 °C 13.1 °C 999.5 hPa Calm   3.5 km/h 99% 0.0 mm 69 W/m2
15:39 13.3 °C 13.2 °C 999.5 hPa SSE 1.1 km/h 3.5 km/h 99% 0.0 mm 68 W/m2
15:44 13.3 °C 13.2 °C 999.2 hPa Calm   3.5 km/h 99% 0.0 mm 60 W/m2
15:49 13.3 °C 13.2 °C 999.2 hPa Calm   2.6 km/h 99% 0.0 mm 54 W/m2
15:54 13.2 °C 13.1 °C 999.2 hPa South 1.1 km/h 3.5 km/h 99% 0.0 mm 50 W/m2
15:59 13.2 °C 13.1 °C 998.9 hPa South 1.1 km/h 3.5 km/h 99% 0.0 mm 41 W/m2
16:04 13.1 °C 12.9 °C 998.9 hPa Calm   3.5 km/h 99% 0.0 mm 36 W/m2
16:09 13.1 °C 12.9 °C 999.2 hPa Calm   3.5 km/h 99% 0.0 mm 31 W/m2
16:14 13.1 °C 12.9 °C 998.9 hPa Calm   1.1 km/h 99% 0.0 mm 26 W/m2
16:19 13.0 °C 12.8 °C 998.9 hPa SSW 1.1 km/h 2.6 km/h 99% 0.0 mm 20 W/m2
16:37 12.7 °C 12.2 °C 998.9 hPa Calm   3.5 km/h 97% 0.0 mm 3 W/m2
16:42 12.7 °C 12.2 °C 998.5 hPa Calm   2.6 km/h 97% 0.0 mm 1 W/m2
16:47 12.7 °C 12.2 °C 998.5 hPa WSW 1.1 km/h 2.6 km/h 97% 0.0 mm 0 W/m2
16:52 12.6 °C 12.2 °C 998.5 hPa South 2.6 km/h 3.5 km/h 97% 0.0 mm 0 W/m2
16:57 12.6 °C 12.2 °C 998.5 hPa South 1.1 km/h 3.5 km/h 97% 0.0 mm 0 W/m2
17:02 12.5 °C 12.1 °C 998.5 hPa Calm   3.5 km/h 97% 0.0 mm 0 W/m2
17:07 12.5 °C 12.1 °C 998.9 hPa Calm   2.6 km/h 97% 0.0 mm 0 W/m2
17:12 12.4 °C 11.9 °C 998.5 hPa Calm   2.6 km/h 97% 0.0 mm 0 W/m2
17:30 12.4 °C 11.9 °C 998.5 hPa Calm   2.6 km/h 97% 0.0 mm 0 W/m2
17:35 12.4 °C 11.9 °C 998.5 hPa Calm   2.6 km/h 97% 0.0 mm 0 W/m2
17:40 12.4 °C 11.9 °C 998.5 hPa Calm   2.6 km/h 97% 0.0 mm 0 W/m2
17:45 12.4 °C 11.9 °C 998.5 hPa Calm   1.1 km/h 97% 0.0 mm 0 W/m2
17:50 12.3 °C 11.8 °C 998.5 hPa Calm     97% 0.0 mm 0 W/m2
17:55 12.3 °C 11.8 °C 998.5 hPa Calm   1.1 km/h 97% 0.0 mm 0 W/m2
18:00 12.3 °C 11.8 °C 998.5 hPa Calm   1.1 km/h 97% 0.0 mm 0 W/m2
18:05 12.3 °C 11.8 °C 998.5 hPa SSE 1.1 km/h 2.6 km/h 97% 0.0 mm 0 W/m2
18:10 12.3 °C 11.8 °C 998.5 hPa Calm   2.6 km/h 97% 0.0 mm 0 W/m2
18:15 12.3 °C 11.8 °C 998.2 hPa Calm   2.6 km/h 97% 0.0 mm 0 W/m2
18:20 12.3 °C 11.8 °C 998.2 hPa ESE 1.1 km/h 2.6 km/h 97% 0.0 mm 0 W/m2
18:25 12.3 °C 11.8 °C 998.2 hPa SE 1.1 km/h 3.5 km/h 97% 0.0 mm 0 W/m2
18:30 12.2 °C 11.7 °C 998.2 hPa SSE 2.6 km/h 3.5 km/h 97% 0.0 mm 0 W/m2
18:35 12.2 °C 11.7 °C 998.2 hPa Calm   3.5 km/h 97% 0.0 mm 0 W/m2
18:40 12.2 °C 11.7 °C 998.2 hPa Calm   3.5 km/h 97% 0.0 mm 0 W/m2
18:45 12.2 °C 11.7 °C 998.2 hPa Calm   2.6 km/h 97% 0.0 mm 0 W/m2
18:50 12.3 °C 11.8 °C 998.2 hPa Calm   2.6 km/h 97% 0.0 mm 0 W/m2
18:55 12.3 °C 11.8 °C 998.2 hPa Calm     97% 0.0 mm 0 W/m2
19:00 12.3 °C 11.8 °C 998.2 hPa Calm   2.6 km/h 97% 0.0 mm 0 W/m2
19:05 12.3 °C 11.8 °C 998.2 hPa Calm   2.6 km/h 97% 0.0 mm 0 W/m2
19:10 12.4 °C 11.9 °C 998.2 hPa Calm   1.1 km/h 97% 0.0 mm 0 W/m2
19:15 12.4 °C 11.9 °C 998.2 hPa Calm     97% 0.0 mm 0 W/m2
19:20 12.4 °C 11.9 °C 998.2 hPa Calm     97% 0.0 mm 0 W/m2
19:25 12.4 °C 11.9 °C 998.2 hPa Calm     97% 0.0 mm 0 W/m2
19:30 12.3 °C 11.8 °C 998.2 hPa Calm     97% 0.0 mm 0 W/m2
19:35 12.4 °C 11.9 °C 998.2 hPa Calm     97% 0.0 mm 0 W/m2
19:40 12.3 °C 11.8 °C 998.2 hPa Calm     97% 0.0 mm 0 W/m2
19:45 12.4 °C 11.9 °C 997.9 hPa Calm     97% 0.0 mm 0 W/m2
19:50 12.3 °C 11.8 °C 998.2 hPa Calm   2.6 km/h 97% 0.0 mm 0 W/m2
19:55 12.3 °C 11.8 °C 997.9 hPa Calm   2.6 km/h 97% 0.0 mm 0 W/m2
20:00 12.3 °C 11.8 °C 997.9 hPa NNE 1.1 km/h 2.6 km/h 97% 0.0 mm 0 W/m2
20:05 12.3 °C 11.8 °C 997.9 hPa Calm   2.6 km/h 97% 0.0 mm 0 W/m2
20:10 12.3 °C 11.8 °C 997.9 hPa Calm   2.6 km/h 97% 0.0 mm 0 W/m2
20:15 12.3 °C 11.8 °C 997.9 hPa Calm   1.1 km/h 97% 0.0 mm 0 W/m2
20:20 12.3 °C 11.8 °C 997.9 hPa Calm     97% 0.0 mm 0 W/m2
20:25 12.3 °C 11.8 °C 997.9 hPa Calm     97% 0.0 mm 0 W/m2
20:30 12.3 °C 11.8 °C 997.9 hPa Calm     97% 0.0 mm 0 W/m2
20:35 12.3 °C 11.8 °C 997.9 hPa Calm     97% 0.0 mm 0 W/m2
20:40 12.3 °C 11.8 °C 998.2 hPa Calm     97% 0.0 mm 0 W/m2
20:45 12.3 °C 11.8 °C 997.9 hPa NW 2.6 km/h 3.5 km/h 97% 0.0 mm 0 W/m2
20:50 12.3 °C 11.8 °C 998.2 hPa NW 1.1 km/h 3.5 km/h 97% 0.0 mm 0 W/m2
20:55 12.2 °C 11.7 °C 997.9 hPa Calm   3.5 km/h 97% 0.0 mm 0 W/m2
21:00 12.2 °C 11.7 °C 998.2 hPa NW 2.6 km/h 3.5 km/h 97% 0.0 mm 0 W/m2
21:05 12.2 °C 11.7 °C 997.9 hPa WNW 1.1 km/h 3.5 km/h 97% 0.0 mm 0 W/m2
21:10 12.2 °C 11.7 °C 997.9 hPa WNW 1.1 km/h 3.5 km/h 97% 0.0 mm 0 W/m2
21:15 12.2 °C 11.7 °C 997.9 hPa NW 1.1 km/h 3.5 km/h 97% 0.0 mm 0 W/m2
21:20 12.1 °C 11.7 °C 997.5 hPa NW 1.1 km/h 3.5 km/h 97% 0.0 mm 0 W/m2
21:25 12.1 °C 11.7 °C 997.5 hPa NW 2.6 km/h 5.0 km/h 97% 0.0 mm 0 W/m2
21:30 12.1 °C 11.7 °C 997.5 hPa NW 1.1 km/h 5.0 km/h 97% 0.0 mm 0 W/m2
21:35 12.1 °C 11.7 °C 997.5 hPa NW 3.5 km/h 5.0 km/h 97% 0.0 mm 0 W/m2
21:40 12.1 °C 11.7 °C 997.5 hPa NW 3.5 km/h 5.0 km/h 97% 0.0 mm 0 W/m2
21:45 12.1 °C 11.7 °C 997.5 hPa NNW 1.1 km/h 5.0 km/h 97% 0.0 mm 0 W/m2
21:50 12.0 °C 11.6 °C 997.2 hPa North 1.1 km/h 5.0 km/h 97% 0.0 mm 0 W/m2
21:55 12.0 °C 11.6 °C 997.5 hPa North 1.1 km/h 3.5 km/h 97% 0.0 mm 0 W/m2
22:00 12.0 °C 11.6 °C 997.5 hPa North 1.1 km/h 5.0 km/h 97% 0.0 mm 0 W/m2
22:05 12.0 °C 11.6 °C 996.8 hPa NNE 1.1 km/h 5.0 km/h 97% 0.0 mm 0 W/m2
22:10 12.0 °C 11.6 °C 996.8 hPa NE 2.6 km/h 5.0 km/h 97% 0.0 mm 0 W/m2
22:15 12.0 °C 11.6 °C 996.8 hPa North 2.6 km/h 5.0 km/h 97% 0.0 mm 0 W/m2
22:33 11.9 °C 11.6 °C 997.2 hPa NNE 1.1 km/h 2.6 km/h 98% 0.0 mm 0 W/m2
22:38 12.0 °C 11.6 °C 997.2 hPa Calm   2.6 km/h 97% 0.0 mm 0 W/m2
22:43 12.0 °C 11.6 °C 997.2 hPa Calm   2.6 km/h 97% 0.0 mm 0 W/m2
22:48 12.0 °C 11.6 °C 997.2 hPa Calm   3.5 km/h 97% 0.0 mm 0 W/m2
22:53 12.0 °C 11.6 °C 996.8 hPa Calm   3.5 km/h 97% 0.0 mm 0 W/m2
22:58 11.9 °C 11.6 °C 996.8 hPa Calm   3.5 km/h 98% 0.0 mm 0 W/m2
23:03 11.9 °C 11.6 °C 996.8 hPa East 1.1 km/h 3.5 km/h 98% 0.3 mm 0 W/m2
23:08 11.9 °C 11.6 °C 996.8 hPa Calm   1.1 km/h 98% 0.3 mm 0 W/m2
23:13 11.8 °C 11.5 °C 996.8 hPa Calm   1.1 km/h 98% 0.3 mm 0 W/m2
23:18 11.8 °C 11.5 °C 996.8 hPa Calm   1.1 km/h 98% 0.3 mm 0 W/m2
23:23 11.8 °C 11.5 °C 996.8 hPa SW 1.1 km/h 2.6 km/h 98% 0.3 mm 0 W/m2
23:28 11.8 °C 11.5 °C 996.8 hPa West 2.6 km/h 3.5 km/h 98% 0.3 mm 0 W/m2
23:33 11.7 °C 11.4 °C 996.5 hPa WNW 2.6 km/h 6.1 km/h 98% 0.3 mm 0 W/m2
23:38 11.7 °C 11.4 °C 996.5 hPa NW 2.6 km/h 6.1 km/h 98% 0.3 mm 0 W/m2
23:43 11.7 °C 11.4 °C 996.5 hPa NW 1.1 km/h 5.0 km/h 98% 0.3 mm 0 W/m2
23:48 11.7 °C 11.4 °C 996.5 hPa NNW 1.1 km/h 5.0 km/h 98% 0.3 mm 0 W/m2
23:53 11.6 °C 11.3 °C 996.5 hPa North 1.1 km/h 3.5 km/h 98% 0.3 mm 0 W/m2
23:58 11.6 °C 11.3 °C 996.5 hPa Calm   3.5 km/h 98% 0.3 mm 0 W/m2
Northern Hawkes Bay. New Zealand Historic Data
Compliments of Weather Underground - 2 mb